Terminal Aerodrome Forecast
Issued by NWS Mt. Holly, NJ

Home | Current Version | Previous Version | Text Only | Print | Product List | Glossary On
Versions: 1 2 3 4 5 6 7 8 9 10 11 12 13 14 15 16 17 18
000
FTUS41 KPHI 281120
TAFILG
TAF
KILG 281120Z 2812/0112 VRB03KT P6SM BKN070 BKN090
     FM281500 15004KT P6SM SCT250
     FM282200 16007KT P6SM BKN050 BKN100
     FM010000 15006KT 2SM SHRA BR BKN025 OVC050
     FM010200 15005KT 2SM SHRA BR BKN015 OVC040
     FM010400 17006KT 2SM SHRA BR BKN005 OVC010
     FM010600 20008KT 2SM BR OVC003=

USA.gov is the U.S. government's official web portal to all federal, state and local government web resources and services.